Time;durP1;ratioP1;P1;durP2;ratioP2;P2;SDS_P1;SDS_P2;PMS_P1;PMS_P2;Temp;Humidity;BMP_temperature;BMP_pressure;BME280_temperature;BME280_humidity;BME280_pressure;Samples;Min_cycle;Max_cycle;Signal;HPM_P1;HPM_P2
2021/03/04 00:02:22;;;;;;;13.67;9.77;;;10.10;99.90;;;;;;5015048;28;20232;-69
2021/03/04 00:04:48;;;;;;;12.40;9.57;;;10.10;99.90;;;;;;5023642;28;20221;-69
2021/03/04 00:07:14;;;;;;;13.03;9.67;;;10.10;99.90;;;;;;5031680;28;20235;-68
2021/03/04 00:09:39;;;;;;;18.70;10.83;;;10.10;99.90;;;;;;5029734;28;20494;-70
2021/03/04 00:12:06;;;;;;;25.90;12.83;;;10.00;99.90;;;;;;4998246;28;20244;-69
2021/03/04 00:14:31;;;;;;;21.87;9.90;;;10.00;99.90;;;;;;5048499;28;20224;-69
2021/03/04 00:16:57;;;;;;;15.33;10.57;;;10.00;99.90;;;;;;5031099;28;20591;-69
2021/03/04 00:19:23;;;;;;;18.47;10.20;;;10.00;99.90;;;;;;5014879;28;20254;-69
2021/03/04 00:21:50;;;;;;;14.60;9.93;;;10.00;99.90;;;;;;5014964;28;20235;-70
2021/03/04 00:24:16;;;;;;;18.53;10.20;;;10.00;99.90;;;;;;5031826;28;20443;-69
2021/03/04 00:26:42;;;;;;;14.23;10.73;;;10.00;99.90;;;;;;5011868;28;20463;-68
2021/03/04 00:29:08;;;;;;;16.93;9.03;;;9.90;99.90;;;;;;5011968;28;20455;-69
2021/03/04 00:31:33;;;;;;;16.40;10.27;;;9.90;99.90;;;;;;4995622;28;20232;-69
2021/03/04 00:33:59;;;;;;;14.90;9.70;;;9.90;99.90;;;;;;4995954;28;20227;-69
2021/03/04 00:36:25;;;;;;;14.70;9.13;;;9.90;99.90;;;;;;5014976;28;20299;-67
2021/03/04 00:38:51;;;;;;;23.67;13.07;;;9.90;99.90;;;;;;5008761;28;20223;-68
2021/03/04 00:41:17;;;;;;;25.00;15.20;;;9.90;99.90;;;;;;5030310;28;20228;-68
2021/03/04 00:43:43;;;;;;;25.20;13.57;;;9.80;99.90;;;;;;4995292;28;20442;-67
2021/03/04 00:46:09;;;;;;;19.67;12.90;;;9.80;99.90;;;;;;5015354;28;20443;-68
2021/03/04 00:48:35;;;;;;;20.80;13.10;;;9.80;99.90;;;;;;5014579;28;20216;-67
2021/03/04 00:51:00;;;;;;;23.53;11.40;;;9.80;99.90;;;;;;5014530;28;20216;-69
2021/03/04 00:53:26;;;;;;;16.00;11.00;;;9.80;99.90;;;;;;5014195;28;20206;-68
2021/03/04 00:55:52;;;;;;;24.53;12.87;;;9.80;99.90;;;;;;4997083;28;20697;-68
2021/03/04 00:58:17;;;;;;;20.77;12.00;;;9.80;99.90;;;;;;4997175;28;20252;-68
2021/03/04 01:00:43;;;;;;;20.90;12.57;;;9.70;99.90;;;;;;5029445;28;20243;-68
2021/03/04 01:03:09;;;;;;;18.07;12.30;;;9.70;99.90;;;;;;5047604;28;20591;-67
2021/03/04 01:05:35;;;;;;;21.87;13.37;;;9.70;99.90;;;;;;5030980;28;20228;-70
2021/03/04 01:08:01;;;;;;;21.33;13.00;;;9.70;99.90;;;;;;5036561;28;20274;-67
2021/03/04 01:10:35;;;;;;;20.30;13.43;;;9.70;99.90;;;;;;5045901;28;20459;-68
2021/03/04 01:13:02;;;;;;;21.37;12.40;;;9.70;99.90;;;;;;5015783;28;20212;-69
2021/03/04 01:15:29;;;;;;;19.70;12.70;;;9.60;99.90;;;;;;5034204;28;20459;-67
2021/03/04 01:17:54;;;;;;;24.33;12.63;;;9.60;99.90;;;;;;4997442;28;20470;-67
2021/03/04 01:20:20;;;;;;;21.93;13.83;;;9.60;99.90;;;;;;4997780;28;20533;-68
2021/03/04 01:22:46;;;;;;;23.47;13.40;;;9.60;99.90;;;;;;4997811;28;20227;-69
2021/03/04 01:25:13;;;;;;;24.80;14.07;;;9.60;99.90;;;;;;5032870;28;20455;-67
2021/03/04 01:27:38;;;;;;;24.03;12.83;;;9.60;99.90;;;;;;5018092;28;20223;-69
2021/03/04 01:30:07;;;;;;;19.37;11.50;;;9.60;99.90;;;;;;5042472;28;20463;-67
2021/03/04 01:32:33;;;;;;;23.40;13.97;;;9.50;99.90;;;;;;5052455;28;20244;-68
2021/03/04 01:35:00;;;;;;;29.83;15.30;;;9.50;99.90;;;;;;5034429;28;20478;-72
2021/03/04 01:37:25;;;;;;;27.77;16.13;;;9.50;99.90;;;;;;5050588;28;20235;-68
2021/03/04 01:39:51;;;;;;;25.47;15.07;;;9.50;99.90;;;;;;5017418;28;20462;-68
2021/03/04 01:42:17;;;;;;;26.80;16.17;;;9.50;99.90;;;;;;5033826;28;20239;-68
2021/03/04 01:44:43;;;;;;;27.90;14.80;;;9.50;99.90;;;;;;5000104;28;20451;-71
2021/03/04 01:47:08;;;;;;;21.33;14.80;;;9.40;99.90;;;;;;5016303;28;20737;-69
2021/03/04 01:49:35;;;;;;;24.10;14.33;;;9.40;99.90;;;;;;5031759;28;20231;-69
2021/03/04 01:52:02;;;;;;;26.13;14.27;;;9.40;99.90;;;;;;5047632;28;20264;-68
2021/03/04 01:54:28;;;;;;;24.70;13.73;;;9.40;99.90;;;;;;5038942;28;20447;-69
2021/03/04 01:56:54;;;;;;;24.47;13.70;;;9.40;99.90;;;;;;5031190;28;20470;-69
2021/03/04 01:59:22;;;;;;;23.90;14.30;;;9.40;99.90;;;;;;5015642;28;20964;-68
2021/03/04 02:01:49;;;;;;;24.90;14.10;;;9.40;99.90;;;;;;5012269;28;20312;-69
2021/03/04 02:04:15;;;;;;;18.27;12.00;;;9.40;99.90;;;;;;5043634;28;20461;-67
2021/03/04 02:07:02;;;;;;;18.90;12.77;;;9.30;99.90;;;;;;5028584;28;20454;-71
2021/03/04 02:09:30;;;;;;;20.03;10.53;;;9.30;99.90;;;;;;5046629;28;20834;-67
2021/03/04 02:12:04;;;;;;;21.93;12.80;;;9.30;99.90;;;;;;5030220;28;20451;-68
2021/03/04 02:14:53;;;;;;;23.47;12.60;;;9.30;99.90;;;;;;5020130;28;20919;-70
2021/03/04 02:17:21;;;;;;;20.07;12.07;;;9.30;99.90;;;;;;5054460;28;20459;-68
2021/03/04 02:20:05;;;;;;;21.90;12.17;;;9.30;99.90;;;;;;5042519;28;20450;-67
2021/03/04 02:22:31;;;;;;;16.00;10.03;;;9.20;99.90;;;;;;5031482;28;20465;-69
2021/03/04 02:25:06;;;;;;;19.50;11.57;;;9.20;99.90;;;;;;5048611;28;20466;-68
2021/03/04 02:27:35;;;;;;;15.97;11.50;;;9.20;99.90;;;;;;5038904;28;20219;-69
2021/03/04 02:30:09;;;;;;;18.60;11.90;;;9.10;99.90;;;;;;4990196;28;20462;-68
2021/03/04 02:32:41;;;;;;;13.57;9.90;;;9.10;99.90;;;;;;4997679;28;20806;-69
2021/03/04 02:35:13;;;;;;;14.17;10.30;;;9.10;99.90;;;;;;5014802;28;20980;-67
2021/03/04 02:37:46;;;;;;;12.53;9.37;;;9.10;99.90;;;;;;4998101;28;20524;-69
2021/03/04 02:40:15;;;;;;;15.97;9.47;;;9.00;99.90;;;;;;5014741;28;20513;-68
2021/03/04 02:42:41;;;;;;;14.17;9.70;;;9.00;99.90;;;;;;5012262;28;566929;-68
2021/03/04 02:45:09;;;;;;;14.23;8.97;;;9.00;99.90;;;;;;5032488;28;20451;-70
2021/03/04 02:47:37;;;;;;;15.63;8.50;;;9.00;99.90;;;;;;5050013;28;20877;-67
2021/03/04 02:50:05;;;;;;;14.87;9.33;;;9.00;99.90;;;;;;5013088;28;20463;-68
2021/03/04 02:52:31;;;;;;;14.77;9.70;;;9.00;99.90;;;;;;5031251;28;20462;-67
2021/03/04 02:54:58;;;;;;;12.83;8.40;;;8.90;99.90;;;;;;5034562;28;20874;-67
2021/03/04 02:57:25;;;;;;;14.80;9.07;;;8.90;99.90;;;;;;5048334;28;20477;-68
2021/03/04 02:59:53;;;;;;;15.13;8.20;;;8.90;99.90;;;;;;5031291;28;20458;-67
2021/03/04 03:02:20;;;;;;;13.00;8.30;;;8.90;99.90;;;;;;5032401;28;20450;-68
2021/03/04 03:04:46;;;;;;;12.83;8.10;;;8.90;99.90;;;;;;5031941;28;20995;-66
2021/03/04 03:07:13;;;;;;;15.20;8.00;;;8.90;99.90;;;;;;5048929;28;20476;-67
2021/03/04 03:09:43;;;;;;;11.80;7.33;;;8.90;99.90;;;;;;5039420;28;20462;-69
2021/03/04 03:12:10;;;;;;;12.60;8.47;;;8.90;99.90;;;;;;5011598;28;20456;-67
2021/03/04 03:14:36;;;;;;;13.87;7.90;;;8.90;99.90;;;;;;5035006;28;20448;-66
2021/03/04 03:17:02;;;;;;;18.83;8.50;;;8.90;99.90;;;;;;5028772;28;20456;-69
2021/03/04 03:19:27;;;;;;;13.97;8.87;;;8.80;99.90;;;;;;5030191;28;20224;-68
2021/03/04 03:21:54;;;;;;;15.00;8.63;;;8.80;99.90;;;;;;4999060;28;20463;-68
2021/03/04 03:24:20;;;;;;;13.40;8.37;;;8.80;99.90;;;;;;5013499;28;20221;-68
2021/03/04 03:26:46;;;;;;;16.20;9.03;;;8.70;99.90;;;;;;5029259;28;20462;-67
2021/03/04 03:29:12;;;;;;;11.93;7.70;;;8.70;99.90;;;;;;5032645;28;20980;-67
2021/03/04 03:31:40;;;;;;;14.40;7.60;;;8.60;99.90;;;;;;5032520;28;20455;-69
2021/03/04 03:34:07;;;;;;;13.30;7.77;;;8.60;99.90;;;;;;5031965;28;20447;-68
2021/03/04 03:36:37;;;;;;;14.33;8.27;;;8.50;99.90;;;;;;5032580;28;20460;-67
2021/03/04 03:39:06;;;;;;;10.90;7.30;;;8.50;99.90;;;;;;5015291;28;20981;-68
2021/03/04 03:41:33;;;;;;;13.57;8.90;;;8.50;99.90;;;;;;5032353;28;20465;-68
2021/03/04 03:44:00;;;;;;;13.30;7.93;;;8.50;99.90;;;;;;5032477;28;20443;-67
2021/03/04 03:46:30;;;;;;;14.40;7.77;;;8.50;99.90;;;;;;5016200;28;20823;-67
2021/03/04 03:48:58;;;;;;;9.60;6.77;;;8.40;99.90;;;;;;5047546;28;20520;-67
2021/03/04 03:51:25;;;;;;;13.43;8.20;;;8.40;99.90;;;;;;5030204;28;20474;-69
2021/03/04 03:53:52;;;;;;;13.47;8.40;;;8.40;99.90;;;;;;5001658;28;20460;-68
2021/03/04 03:56:20;;;;;;;11.60;6.47;;;8.40;99.90;;;;;;5004872;28;20455;-67
2021/03/04 03:58:47;;;;;;;11.57;7.40;;;8.50;99.90;;;;;;5028622;28;20462;-66
2021/03/04 04:01:13;;;;;;;12.00;7.00;;;8.50;99.90;;;;;;5011521;28;20456;-68
2021/03/04 04:03:40;;;;;;;12.40;7.00;;;8.50;99.90;;;;;;5011740;28;20467;-67
2021/03/04 04:06:07;;;;;;;12.10;7.90;;;8.50;99.90;;;;;;4996116;28;20887;-67
2021/03/04 04:08:33;;;;;;;12.17;7.07;;;8.50;99.90;;;;;;4995943;28;20456;-67
2021/03/04 04:10:59;;;;;;;14.47;7.30;;;8.40;99.90;;;;;;5027803;28;20826;-67
2021/03/04 04:13:25;;;;;;;16.80;7.80;;;8.50;99.90;;;;;;5030241;28;20542;-69
2021/03/04 04:15:51;;;;;;;9.90;6.73;;;8.50;99.90;;;;;;4999871;28;20638;-66
2021/03/04 04:18:18;;;;;;;10.67;7.50;;;8.50;99.90;;;;;;5011415;28;20312;-67
2021/03/04 04:20:45;;;;;;;11.13;7.60;;;8.40;99.90;;;;;;4994888;28;20249;-68
2021/03/04 04:23:11;;;;;;;10.20;7.13;;;8.40;99.90;;;;;;5008960;28;20986;-67
2021/03/04 04:25:47;;;;;;;13.37;8.33;;;8.40;99.90;;;;;;5014606;28;20817;-68
2021/03/04 04:28:12;;;;;;;10.73;7.10;;;8.40;99.90;;;;;;5011381;28;20451;-66
2021/03/04 04:30:38;;;;;;;15.80;8.17;;;8.40;99.90;;;;;;4979093;28;20985;-68
2021/03/04 04:33:04;;;;;;;13.53;8.27;;;8.40;99.90;;;;;;4979524;28;20208;-69
2021/03/04 04:35:29;;;;;;;9.30;6.87;;;8.50;99.90;;;;;;5012003;28;20688;-67
2021/03/04 04:37:55;;;;;;;12.37;7.17;;;8.50;99.90;;;;;;5011700;28;20338;-66
2021/03/04 04:40:21;;;;;;;12.10;8.27;;;8.50;99.90;;;;;;4995346;28;20698;-67
2021/03/04 04:42:46;;;;;;;13.60;9.10;;;8.40;99.90;;;;;;4995118;28;20221;-68
2021/03/04 04:45:12;;;;;;;10.97;7.07;;;8.40;99.90;;;;;;4979529;28;20299;-68
2021/03/04 04:47:38;;;;;;;16.57;8.90;;;8.40;99.90;;;;;;4995475;28;20248;-69
2021/03/04 04:50:05;;;;;;;15.80;8.27;;;8.40;99.90;;;;;;5011225;28;20719;-68
2021/03/04 04:52:30;;;;;;;17.53;8.80;;;8.40;99.90;;;;;;5028026;28;20797;-68
2021/03/04 04:54:56;;;;;;;12.57;7.67;;;8.40;99.90;;;;;;5021727;28;20459;-67
2021/03/04 04:57:22;;;;;;;11.97;7.87;;;8.40;99.90;;;;;;4997906;28;20228;-70
2021/03/04 04:59:48;;;;;;;13.20;8.60;;;8.40;99.90;;;;;;5014279;28;20270;-66
2021/03/04 05:02:14;;;;;;;13.93;8.33;;;8.30;99.90;;;;;;5021586;28;20459;-67
2021/03/04 05:04:40;;;;;;;15.73;8.27;;;8.40;99.90;;;;;;5019838;28;20451;-66
2021/03/04 05:07:06;;;;;;;12.50;7.90;;;8.30;99.90;;;;;;5012587;28;20216;-67
2021/03/04 05:09:31;;;;;;;12.47;7.60;;;8.30;99.90;;;;;;5014660;28;20772;-68
2021/03/04 05:11:57;;;;;;;11.73;7.67;;;8.40;99.90;;;;;;4997817;28;20291;-70
2021/03/04 05:14:22;;;;;;;15.00;7.60;;;8.40;99.90;;;;;;4975296;28;20711;-66
2021/03/04 05:16:48;;;;;;;13.93;8.27;;;8.30;99.90;;;;;;5012232;28;20216;-67
2021/03/04 05:19:14;;;;;;;11.70;7.50;;;8.30;99.90;;;;;;5005711;28;20269;-67
2021/03/04 05:21:39;;;;;;;10.87;7.23;;;8.40;99.90;;;;;;5006151;28;20225;-69
2021/03/04 05:24:06;;;;;;;10.67;7.20;;;8.40;99.90;;;;;;5028422;28;20303;-69
2021/03/04 05:26:31;;;;;;;15.63;8.20;;;8.40;99.90;;;;;;4998834;28;20835;-66
2021/03/04 05:28:57;;;;;;;14.80;8.67;;;8.30;99.90;;;;;;5011185;28;20447;-67
2021/03/04 05:31:22;;;;;;;15.60;7.27;;;8.30;99.90;;;;;;5007685;28;20315;-67
2021/03/04 05:33:48;;;;;;;13.37;7.73;;;8.30;99.90;;;;;;5031278;28;20226;-67
2021/03/04 05:36:14;;;;;;;14.93;7.80;;;8.30;99.90;;;;;;5015448;28;20334;-67
2021/03/04 05:38:40;;;;;;;11.73;8.00;;;8.30;99.90;;;;;;5030574;28;20232;-66
2021/03/04 05:41:07;;;;;;;17.50;8.70;;;8.30;99.90;;;;;;5030723;28;20230;-66
2021/03/04 05:43:34;;;;;;;12.80;7.97;;;8.30;99.90;;;;;;5031108;28;20231;-68
2021/03/04 05:46:00;;;;;;;9.30;7.07;;;8.30;99.90;;;;;;5047550;28;20522;-67
2021/03/04 05:48:28;;;;;;;12.60;8.13;;;8.30;99.90;;;;;;5047305;28;20600;-66
2021/03/04 05:50:57;;;;;;;16.00;8.07;;;8.30;99.90;;;;;;5013486;28;20616;-67
2021/03/04 05:53:23;;;;;;;18.57;9.80;;;8.30;99.90;;;;;;5046579;28;20462;-67
2021/03/04 05:55:49;;;;;;;12.13;7.27;;;8.30;99.90;;;;;;5026269;28;20456;-66
2021/03/04 05:58:15;;;;;;;13.03;7.47;;;8.30;99.90;;;;;;5010828;28;20468;-70
2021/03/04 06:00:42;;;;;;;16.90;8.60;;;8.30;99.90;;;;;;5024269;28;20229;-68
2021/03/04 06:03:08;;;;;;;12.73;7.90;;;8.30;99.90;;;;;;5024576;28;20475;-67
2021/03/04 06:05:34;;;;;;;11.73;8.27;;;8.30;99.90;;;;;;5008801;28;20520;-67
2021/03/04 06:08:05;;;;;;;10.63;7.87;;;8.30;99.90;;;;;;5023839;28;20530;-67
2021/03/04 06:10:31;;;;;;;16.70;8.50;;;8.30;99.90;;;;;;5027704;28;20463;-67
2021/03/04 06:12:57;;;;;;;18.47;8.70;;;8.30;99.90;;;;;;5047431;28;20463;-69
2021/03/04 06:15:24;;;;;;;9.57;8.00;;;8.30;99.90;;;;;;5022501;28;20454;-66
2021/03/04 06:17:57;;;;;;;12.50;8.10;;;8.30;99.90;;;;;;5031713;28;20228;-67
2021/03/04 06:20:24;;;;;;;11.50;8.30;;;8.30;99.90;;;;;;5029252;28;20529;-69
2021/03/04 06:22:51;;;;;;;11.87;8.07;;;8.20;99.90;;;;;;5028682;28;20520;-70
2021/03/04 06:25:17;;;;;;;12.50;8.67;;;8.20;99.90;;;;;;5015191;28;21072;-69
2021/03/04 06:27:46;;;;;;;14.13;8.90;;;8.30;99.90;;;;;;4984530;28;20458;-67
2021/03/04 06:30:16;;;;;;;15.93;8.80;;;8.30;99.90;;;;;;5030974;28;20447;-69
2021/03/04 06:32:56;;;;;;;13.60;7.97;;;8.30;99.90;;;;;;5010348;28;20460;-67
2021/03/04 06:35:23;;;;;;;15.67;10.00;;;8.30;99.90;;;;;;5026532;28;21823;-67
2021/03/04 06:37:50;;;;;;;17.27;9.67;;;8.30;99.90;;;;;;5028712;28;20463;-66
2021/03/04 06:40:32;;;;;;;11.77;8.53;;;8.30;99.90;;;;;;5026828;28;20459;-68
2021/03/04 06:42:59;;;;;;;14.67;9.47;;;8.20;99.90;;;;;;5028790;28;21891;-70
2021/03/04 06:45:36;;;;;;;13.77;9.47;;;8.20;99.90;;;;;;5034432;28;20927;-68
2021/03/04 06:48:09;;;;;;;13.23;10.00;;;8.20;99.90;;;;;;5033611;28;20501;-66
2021/03/04 06:50:36;;;;;;;13.70;8.43;;;8.20;99.90;;;;;;5049972;28;20459;-69
2021/03/04 06:53:11;;;;;;;16.77;10.00;;;8.20;99.90;;;;;;5049542;28;20457;-69
2021/03/04 06:55:50;;;;;;;13.60;8.77;;;8.20;99.90;;;;;;5031552;28;20455;-68
2021/03/04 06:58:28;;;;;;;16.33;9.07;;;8.20;99.90;;;;;;5029790;28;20468;-67
2021/03/04 07:01:06;;;;;;;13.97;8.23;;;8.20;99.90;;;;;;5012743;28;20448;-67
2021/03/04 07:03:56;;;;;;;12.67;9.80;;;8.10;99.90;;;;;;5013450;28;20514;-67
2021/03/04 07:06:24;;;;;;;15.10;9.80;;;8.20;99.90;;;;;;5016007;28;20443;-66
2021/03/04 07:08:52;;;;;;;14.50;9.33;;;8.10;99.90;;;;;;5012275;28;20466;-68
2021/03/04 07:11:23;;;;;;;15.27;10.40;;;8.20;99.90;;;;;;5014351;28;20510;-67
2021/03/04 07:13:50;;;;;;;18.20;9.30;;;8.10;99.90;;;;;;5032538;28;20451;-67
2021/03/04 07:16:31;;;;;;;16.97;9.70;;;8.20;99.90;;;;;;5050783;28;20459;-67
2021/03/04 07:18:59;;;;;;;20.70;10.53;;;8.20;99.90;;;;;;5050215;28;20501;-67
2021/03/04 07:21:33;;;;;;;16.00;9.83;;;8.10;99.90;;;;;;5045828;28;20462;-67
2021/03/04 07:24:03;;;;;;;15.50;9.80;;;8.10;99.90;;;;;;5021168;28;20844;-67
2021/03/04 07:26:29;;;;;;;17.23;10.93;;;8.10;99.90;;;;;;5044967;28;20463;-69
2021/03/04 07:28:56;;;;;;;22.50;11.40;;;8.10;99.90;;;;;;5009990;28;20467;-67
2021/03/04 07:31:21;;;;;;;17.50;9.77;;;8.20;99.90;;;;;;5031765;28;20585;-66
2021/03/04 07:33:49;;;;;;;15.07;10.53;;;8.20;99.90;;;;;;5028855;28;20870;-67
2021/03/04 07:36:21;;;;;;;21.87;10.00;;;8.20;99.90;;;;;;5029331;28;20229;-69
2021/03/04 07:38:57;;;;;;;16.50;10.10;;;8.20;99.90;;;;;;5012097;28;20459;-67
2021/03/04 07:41:44;;;;;;;14.60;10.10;;;8.30;99.90;;;;;;5029371;28;20522;-69
2021/03/04 07:44:22;;;;;;;14.40;8.37;;;8.30;99.90;;;;;;5028678;28;20468;-69
2021/03/04 07:46:55;;;;;;;18.60;9.20;;;8.30;99.90;;;;;;5028932;28;20529;-71
2021/03/04 07:49:34;;;;;;;14.80;10.87;;;8.30;99.90;;;;;;4996266;28;20444;-69
2021/03/04 07:52:07;;;;;;;16.83;9.30;;;8.40;99.90;;;;;;5008787;28;20466;-67
2021/03/04 07:54:33;;;;;;;21.50;9.60;;;8.40;99.90;;;;;;5017276;28;20459;-69
2021/03/04 07:57:05;;;;;;;12.93;8.30;;;8.40;99.90;;;;;;5028134;28;20501;-71
2021/03/04 07:59:31;;;;;;;14.57;8.50;;;8.50;99.90;;;;;;5013260;28;20695;-72
2021/03/04 08:01:59;;;;;;;18.87;9.30;;;8.50;99.90;;;;;;5009916;28;20447;-69
2021/03/04 08:04:27;;;;;;;15.20;10.43;;;8.60;99.90;;;;;;5031666;28;20235;-69
2021/03/04 08:06:54;;;;;;;12.87;10.03;;;8.60;99.90;;;;;;5012124;28;20447;-68
2021/03/04 08:09:35;;;;;;;16.30;9.70;;;8.60;99.90;;;;;;5014586;28;20459;-68
2021/03/04 08:12:14;;;;;;;14.87;9.17;;;8.60;99.90;;;;;;4998542;28;20451;-67
2021/03/04 08:14:52;;;;;;;13.40;9.47;;;8.60;99.90;;;;;;5032553;28;20459;-68
2021/03/04 08:17:18;;;;;;;16.30;8.53;;;8.60;99.90;;;;;;5043863;28;20499;-69
2021/03/04 08:19:45;;;;;;;14.77;8.60;;;8.60;99.90;;;;;;5044277;28;20532;-70
2021/03/04 08:22:11;;;;;;;14.10;8.70;;;8.60;99.90;;;;;;5045510;28;20224;-70
2021/03/04 08:24:38;;;;;;;17.07;9.40;;;8.70;99.90;;;;;;5011778;28;20463;-68
2021/03/04 08:27:08;;;;;;;13.77;8.30;;;8.80;99.90;;;;;;5012283;28;20613;-68
2021/03/04 08:29:34;;;;;;;10.23;7.47;;;8.80;99.90;;;;;;5044342;28;20462;-67
2021/03/04 08:32:02;;;;;;;18.00;8.80;;;8.80;99.90;;;;;;4994037;28;20451;-70
2021/03/04 08:34:36;;;;;;;14.03;8.33;;;8.90;99.90;;;;;;5013186;28;21003;-69
2021/03/04 08:37:03;;;;;;;14.13;8.70;;;9.00;99.90;;;;;;5030972;28;20499;-68
2021/03/04 08:39:34;;;;;;;16.10;9.87;;;9.10;99.90;;;;;;5046975;28;20462;-69
2021/03/04 08:42:08;;;;;;;15.20;8.80;;;9.10;99.90;;;;;;5022923;28;20462;-67
2021/03/04 08:44:34;;;;;;;20.00;10.20;;;9.20;99.90;;;;;;5027850;28;20838;-67
2021/03/04 08:47:00;;;;;;;14.70;8.70;;;9.30;99.90;;;;;;5011601;28;20467;-67
2021/03/04 08:49:26;;;;;;;16.17;9.90;;;9.30;99.90;;;;;;5011648;28;20443;-67
2021/03/04 08:51:55;;;;;;;16.73;9.10;;;9.30;99.90;;;;;;5028665;28;20569;-70
2021/03/04 08:54:26;;;;;;;15.20;8.80;;;9.40;99.90;;;;;;5029432;28;21074;-67
2021/03/04 08:57:02;;;;;;;13.60;9.80;;;9.50;99.90;;;;;;5045701;28;20469;-67
2021/03/04 08:59:29;;;;;;;22.53;12.93;;;9.60;99.90;;;;;;5031369;28;20466;-68
2021/03/04 09:01:55;;;;;;;16.40;11.03;;;9.70;99.90;;;;;;5046503;28;20478;-67
2021/03/04 09:04:26;;;;;;;19.40;10.20;;;9.70;99.90;;;;;;5046208;28;20485;-68
2021/03/04 09:06:53;;;;;;;15.37;9.37;;;9.80;99.90;;;;;;5007327;28;21092;-67
2021/03/04 09:09:27;;;;;;;17.70;9.17;;;9.90;99.90;;;;;;5026464;28;20804;-68
2021/03/04 09:11:57;;;;;;;19.23;10.20;;;10.10;99.90;;;;;;4999233;28;20552;-67
2021/03/04 09:14:30;;;;;;;16.43;9.30;;;10.20;99.90;;;;;;5011639;28;20475;-68
2021/03/04 09:16:56;;;;;;;17.70;10.00;;;10.20;99.90;;;;;;5028094;28;20601;-68
2021/03/04 09:19:38;;;;;;;17.57;10.60;;;10.30;99.90;;;;;;5026741;28;20466;-69
2021/03/04 09:22:07;;;;;;;11.23;8.07;;;10.40;99.90;;;;;;5015506;28;21003;-68
2021/03/04 09:24:33;;;;;;;13.80;10.00;;;10.40;99.90;;;;;;4996673;28;20505;-67
2021/03/04 09:27:03;;;;;;;22.77;9.87;;;10.50;99.90;;;;;;5010199;28;20965;-70
2021/03/04 09:29:31;;;;;;;15.97;10.80;;;10.60;99.90;;;;;;5042023;28;20534;-70
2021/03/04 09:31:56;;;;;;;15.90;9.00;;;10.60;99.90;;;;;;4994981;28;20462;-67
2021/03/04 09:34:42;;;;;;;14.67;9.80;;;10.70;99.90;;;;;;5028095;28;20838;-71
2021/03/04 09:37:22;;;;;;;16.73;10.40;;;10.80;99.90;;;;;;5032885;28;20227;-68
2021/03/04 09:39:49;;;;;;;17.10;10.37;;;10.90;99.90;;;;;;5044334;28;20499;-68
2021/03/04 09:42:18;;;;;;;11.33;9.30;;;10.90;99.90;;;;;;5045106;28;20894;-68
2021/03/04 09:44:55;;;;;;;15.77;10.33;;;10.90;99.90;;;;;;5029646;28;20459;-67
2021/03/04 09:47:27;;;;;;;20.47;13.00;;;11.00;99.90;;;;;;5016977;28;20493;-69
2021/03/04 09:49:54;;;;;;;23.67;15.10;;;11.10;99.90;;;;;;5000200;28;20489;-69
2021/03/04 09:52:22;;;;;;;21.63;15.03;;;11.20;99.90;;;;;;5033153;28;20458;-68
2021/03/04 09:54:49;;;;;;;24.90;15.23;;;11.30;99.90;;;;;;5016457;28;20816;-69
2021/03/04 09:57:20;;;;;;;22.70;14.80;;;11.40;99.90;;;;;;5033270;28;20478;-69
2021/03/04 09:59:53;;;;;;;21.93;12.20;;;11.50;99.90;;;;;;5032624;28;20485;-68
2021/03/04 10:02:20;;;;;;;22.47;15.00;;;11.70;99.90;;;;;;5033158;28;20819;-68
2021/03/04 10:05:00;;;;;;;19.43;14.00;;;11.80;99.90;;;;;;5033004;28;20949;-69
2021/03/04 10:07:28;;;;;;;19.90;13.93;;;11.90;99.90;;;;;;5032312;28;20465;-68
2021/03/04 10:09:54;;;;;;;17.90;12.13;;;11.90;99.90;;;;;;5049539;28;20534;-68
2021/03/04 10:12:21;;;;;;;18.37;13.63;;;12.00;99.90;;;;;;5040710;28;20461;-68
2021/03/04 10:14:48;;;;;;;20.67;12.50;;;12.10;99.90;;;;;;5002751;28;20440;-69
2021/03/04 10:17:14;;;;;;;17.47;11.93;;;12.20;99.90;;;;;;5023127;28;20563;-68
2021/03/04 10:19:41;;;;;;;21.57;12.77;;;12.20;99.90;;;;;;5030282;28;20477;-70
2021/03/04 10:22:07;;;;;;;19.60;12.10;;;12.20;99.90;;;;;;5047769;28;20443;-67
2021/03/04 10:24:34;;;;;;;20.57;11.30;;;12.20;99.90;;;;;;5014134;28;20501;-68
2021/03/04 10:27:00;;;;;;;20.37;13.90;;;12.30;99.90;;;;;;5030431;28;20451;-68
2021/03/04 10:29:27;;;;;;;18.83;13.23;;;12.30;99.90;;;;;;4995746;28;20464;-69
2021/03/04 10:31:53;;;;;;;17.93;11.97;;;12.40;99.90;;;;;;5012509;28;20485;-70
2021/03/04 10:34:19;;;;;;;27.60;16.63;;;12.50;99.90;;;;;;5013904;28;20444;-68
2021/03/04 10:36:45;;;;;;;16.27;12.40;;;12.50;99.90;;;;;;5033697;28;20475;-69
2021/03/04 10:39:11;;;;;;;19.00;11.60;;;12.50;99.90;;;;;;5010040;28;20888;-67
2021/03/04 10:41:36;;;;;;;19.17;13.27;;;12.60;99.90;;;;;;5035363;28;20228;-68
2021/03/04 10:44:02;;;;;;;15.10;11.27;;;12.60;99.90;;;;;;5019238;28;20451;-68
2021/03/04 10:46:29;;;;;;;21.07;12.60;;;12.70;99.90;;;;;;4978118;28;20302;-68
2021/03/04 10:48:54;;;;;;;17.77;11.40;;;12.70;99.90;;;;;;5005593;28;20209;-68
2021/03/04 10:51:20;;;;;;;20.87;11.47;;;12.70;99.90;;;;;;4997146;28;20504;-68
2021/03/04 10:53:45;;;;;;;17.30;11.67;;;12.80;99.90;;;;;;5029487;28;20220;-68
2021/03/04 10:56:11;;;;;;;19.13;12.40;;;12.90;99.90;;;;;;5013877;28;20277;-69
2021/03/04 10:58:37;;;;;;;15.03;11.70;;;12.90;99.90;;;;;;5030348;28;20289;-68
2021/03/04 11:01:02;;;;;;;19.00;12.40;;;13.00;99.90;;;;;;5013604;28;20623;-67
2021/03/04 11:03:28;;;;;;;21.17;13.07;;;13.20;99.90;;;;;;4999293;28;20235;-72
2021/03/04 11:05:55;;;;;;;20.73;12.60;;;13.30;99.90;;;;;;5015693;28;20280;-69
2021/03/04 11:08:21;;;;;;;20.00;13.17;;;13.30;99.90;;;;;;4998285;28;20227;-70
2021/03/04 11:10:47;;;;;;;22.43;13.80;;;13.40;99.90;;;;;;4997901;28;20458;-68
2021/03/04 11:13:15;;;;;;;20.17;12.47;;;13.40;99.90;;;;;;5046851;28;20220;-69
2021/03/04 11:15:41;;;;;;;21.00;13.53;;;13.40;99.90;;;;;;5011105;28;20451;-69
2021/03/04 11:18:07;;;;;;;19.40;14.00;;;13.50;99.90;;;;;;5015656;28;20470;-70
2021/03/04 11:20:32;;;;;;;19.77;12.83;;;13.50;99.90;;;;;;5014344;28;20235;-69
2021/03/04 11:22:59;;;;;;;19.67;13.40;;;13.50;99.90;;;;;;5030676;28;20234;-67
2021/03/04 11:25:24;;;;;;;19.10;12.13;;;13.50;99.90;;;;;;5015043;28;20304;-68
2021/03/04 11:27:50;;;;;;;19.30;12.83;;;13.50;99.90;;;;;;5031257;28;20546;-68
2021/03/04 11:30:17;;;;;;;20.17;12.50;;;13.50;99.90;;;;;;5014605;28;20227;-69
2021/03/04 11:32:42;;;;;;;17.97;11.23;;;13.50;99.90;;;;;;5030284;28;20470;-68
2021/03/04 11:35:09;;;;;;;18.77;11.50;;;13.60;99.90;;;;;;5014664;28;20447;-68
2021/03/04 11:37:34;;;;;;;18.37;12.30;;;13.60;99.90;;;;;;5030009;28;20278;-67
2021/03/04 11:40:00;;;;;;;17.00;12.07;;;13.60;99.90;;;;;;5030866;28;20949;-68
2021/03/04 11:42:26;;;;;;;21.67;13.67;;;13.60;99.90;;;;;;5014494;28;20307;-68
2021/03/04 11:44:52;;;;;;;21.77;12.00;;;13.70;99.90;;;;;;5014359;28;20633;-70
2021/03/04 11:47:18;;;;;;;20.77;12.00;;;13.70;99.90;;;;;;5030803;28;20270;-71
2021/03/04 11:49:43;;;;;;;21.43;12.17;;;13.70;99.90;;;;;;5011882;28;20220;-68
2021/03/04 11:52:09;;;;;;;18.93;10.70;;;13.80;99.90;;;;;;5021762;28;20656;-67
2021/03/04 11:54:35;;;;;;;18.37;11.70;;;13.80;99.90;;;;;;5030003;28;20240;-67
2021/03/04 11:57:01;;;;;;;17.87;11.17;;;13.80;99.90;;;;;;5014022;28;20521;-68
2021/03/04 11:59:27;;;;;;;20.57;12.53;;;13.90;99.90;;;;;;5019841;28;20217;-72
2021/03/04 12:01:52;;;;;;;13.73;10.77;;;13.90;99.90;;;;;;5009950;28;20221;-69
2021/03/04 12:04:18;;;;;;;17.00;11.30;;;14.00;99.90;;;;;;5011259;28;20279;-67
2021/03/04 12:06:44;;;;;;;15.27;9.70;;;14.00;99.90;;;;;;5011603;28;20356;-66
2021/03/04 12:09:09;;;;;;;17.30;10.10;;;14.10;99.90;;;;;;4994533;28;20215;-67
2021/03/04 12:11:35;;;;;;;13.73;9.60;;;14.20;99.90;;;;;;5016008;28;20308;-67
2021/03/04 12:14:01;;;;;;;22.43;12.00;;;14.30;99.90;;;;;;5028431;28;20224;-68
2021/03/04 12:16:27;;;;;;;15.50;10.70;;;14.40;99.90;;;;;;5047976;28;20213;-67
2021/03/04 12:18:52;;;;;;;18.67;12.00;;;14.40;99.90;;;;;;5028900;28;20221;-67
2021/03/04 12:21:18;;;;;;;13.20;10.30;;;14.50;99.90;;;;;;5030109;28;20224;-67
2021/03/04 12:23:45;;;;;;;16.53;11.30;;;14.50;99.90;;;;;;5017635;28;20296;-68
2021/03/04 12:26:10;;;;;;;23.10;11.10;;;14.60;99.90;;;;;;5011963;28;20228;-66
2021/03/04 12:28:36;;;;;;;15.13;11.50;;;14.60;99.90;;;;;;4978487;28;20465;-69
2021/03/04 12:31:02;;;;;;;19.87;12.87;;;14.60;99.90;;;;;;5010142;28;20590;-66
2021/03/04 12:33:27;;;;;;;23.43;11.53;;;14.60;99.90;;;;;;4994512;28;20303;-67
2021/03/04 12:35:53;;;;;;;20.17;11.50;;;14.60;99.90;;;;;;4993958;28;20259;-66
2021/03/04 12:38:19;;;;;;;14.60;10.40;;;14.60;99.90;;;;;;5027116;28;20229;-67
2021/03/04 12:40:44;;;;;;;16.47;10.67;;;14.60;99.90;;;;;;5009676;28;20316;-66
2021/03/04 12:43:10;;;;;;;22.20;12.80;;;14.50;99.90;;;;;;5011008;28;20221;-68